Bw Arctic — 3EDI6 — position and weather

sailwx.info

Track history (hours):
 
Tides and Currents Weather Stations Pressure Air Temp Water Temp Dewpoint Dewpoint Depression Visibility Wind Speed Wind Dir Waves Ship Positions

Bw Arctic

Last reported at 2015-Sep-05 03:31 UTC. Time now 2015-Sep-05 03:43 UTC.
Position N 53°38' W 000°12'.

Length 292 m; beam 48 m; draft 17.2 m.

Type: Cargo ship. MMSI: 371579000.

Date/timePositionNaut miles runAvg speedWind from/ knotsBaromVisibWave heightAir tempDewpointWater temp
2015-Sep-05 03:31N 53°38' W 000°12'0 0.0
2015-Sep-05 02:31N 53°38' W 000°12'0 0.0
2015-Sep-05 01:31N 53°38' W 000°12'0 0.0
2015-Sep-05 00:31N 53°38' W 000°12'0 0.0
2015-Sep-04 23:32N 53°38' W 000°12'0 0.0
2015-Sep-04 22:31N 53°38' W 000°12'0 0.0
2015-Sep-04 21:31N 53°38' W 000°12'0 0.0
2015-Sep-04 20:31N 53°38' W 000°12'0 0.0
2015-Sep-04 19:31N 53°38' W 000°12'0 0.0
2015-Sep-04 18:31N 53°38' W 000°12'0 0.0
2015-Sep-04 17:31N 53°38' W 000°12'0 0.0
2015-Sep-04 16:31N 53°38' W 000°12'0 0.0
2015-Sep-04 15:31N 53°38' W 000°12'0 0.0
2015-Sep-04 14:31N 53°38' W 000°12'0 0.0
2015-Sep-04 13:31N 53°38' W 000°12'0 0.0
2015-Sep-04 12:31N 53°38' W 000°12'0 0.0
2015-Sep-04 11:31N 53°38' W 000°12'0 0.0
2015-Sep-04 10:31N 53°38' W 000°12'0 0.0
2015-Sep-04 09:31N 53°38' W 000°12'0 0.0
2015-Sep-04 08:31N 53°38' W 000°12'0 0.0
2015-Sep-04 07:31N 53°38' W 000°12'0 0.0
2015-Sep-04 06:31N 53°38' W 000°12'0 0.0
2015-Sep-04 05:31N 53°38' W 000°12'0 0.0
2015-Sep-04 04:31N 53°38' W 000°12'0 0.0
2015-Sep-04 03:31N 53°38' W 000°12'0 0.0
2015-Sep-04 02:31N 53°38' W 000°12'0 0.0
2015-Sep-04 01:31N 53°38' W 000°12'0 0.0
2015-Sep-04 00:31N 53°38' W 000°12'0 0.0
2015-Sep-03 23:31N 53°38' W 000°12'0 0.0
2015-Sep-03 22:31N 53°38' W 000°12'0 0.0
2015-Sep-03 21:33N 53°38' W 000°12'3 3.3
2015-Sep-03 20:33N 53°37' W 000°06'10 9.7
2015-Sep-03 19:33N 53°33' E 000°09'1010.2
2015-Sep-03 18:33N 53°39' E 000°23'2 2.5
2015-Sep-03 17:33N 53°41' E 000°25'6 6.2
2015-Sep-03 16:33N 53°46' E 000°30'0 0.2
2015-Sep-03 15:28N 53°46' E 000°30'0 0.1
2015-Sep-03 14:31N 53°46' E 000°30'0 0.0
2015-Sep-03 13:31N 53°46' E 000°30'0 0.0
2015-Sep-03 12:31N 53°46' E 000°30'0 0.3
2015-Sep-03 11:19N 53°46' E 000°30'0 0.1
2015-Sep-03 10:31N 53°46' E 000°30'0 0.0
2015-Sep-03 09:22N 53°46' E 000°30'0 0.0
2015-Sep-03 08:25N 53°46' E 000°30'0 0.0
2015-Sep-03 07:22N 53°46' E 000°30'0 0.1
2015-Sep-03 06:25N 53°46' E 000°30'0 0.0
2015-Sep-03 05:25N 53°46' E 000°30'0 0.0
2015-Sep-03 04:13N 53°46' E 000°30'0 0.2
2015-Sep-03 03:28N 53°46' E 000°30'0 0.2
2015-Sep-03 02:25N 53°46' E 000°30'0 0.0
2015-Sep-03 01:31N 53°46' E 000°30'0 0.0
2015-Sep-02 23:31N 53°46' E 000°30'0 0.3
2015-Sep-02 22:31N 53°46' E 000°30'0 0.0
2015-Sep-02 21:31N 53°46' E 000°30'0 0.0
2015-Sep-02 20:31N 53°46' E 000°30'0 0.0
2015-Sep-02 19:22N 53°46' E 000°30'0 0.1
2015-Sep-02 18:31N 53°46' E 000°30'0 0.0
2015-Sep-02 17:28N 53°46' E 000°30'0 0.0
2015-Sep-02 16:25N 53°46' E 000°30'0 0.2
2015-Sep-02 15:13N 53°46' E 000°30'0 0.3
2015-Sep-02 14:28N 53°46' E 000°30'0 0.0
2015-Sep-02 13:28N 53°46' E 000°30'0 0.0
2015-Sep-02 12:31N 53°46' E 000°30'0 0.1
2015-Sep-02 11:31N 53°46' E 000°30'0 0.3
2015-Sep-02 10:28N 53°46' E 000°30'0 0.1
2015-Sep-02 09:31N 53°46' E 000°30'0 0.0
2015-Sep-02 08:31N 53°46' E 000°30'0 0.0
2015-Sep-02 07:16N 53°46' E 000°30'1 0.9
2015-Sep-02 06:33N 53°47' E 000°31'6 6.5
2015-Sep-02 05:33N 53°51' E 000°39'148 9.3
2015-Sep-01 13:33N 52°31' E 004°07'1010.1
2015-Sep-01 12:33N 52°29' E 004°23'7 3.6
2015-Sep-01 10:33N 52°28' E 004°35'0 0.0
2015-Sep-01 09:18N 52°28' E 004°35'0 0.0
2015-Sep-01 08:33N 52°28' E 004°35'0 0.0
2015-Sep-01 07:33N 52°28' E 004°35'0 0.0
2015-Sep-01 06:33N 52°28' E 004°35'0 0.0
2015-Sep-01 05:24N 52°28' E 004°35'0 0.0
2015-Sep-01 04:33N 52°28' E 004°35'0 0.0
2015-Sep-01 03:33N 52°28' E 004°35'0 0.0
2015-Sep-01 02:33N 52°28' E 004°35'0 0.0
2015-Sep-01 01:33N 52°28' E 004°35'0 0.0
2015-Sep-01 00:33N 52°28' E 004°35'0 0.0
2015-Aug-31 23:33N 52°28' E 004°35'0 0.0
2015-Aug-31 22:33N 52°28' E 004°35'0 0.0
2015-Aug-31 21:33N 52°28' E 004°35'0 0.0
2015-Aug-31 20:33N 52°28' E 004°35'0 0.0
2015-Aug-31 19:33N 52°28' E 004°35'0 0.0
2015-Aug-31 18:33N 52°28' E 004°35'0 0.0
2015-Aug-31 17:33N 52°28' E 004°35'0 0.0
2015-Aug-31 16:33N 52°28' E 004°35'0 0.0
2015-Aug-31 15:30N 52°28' E 004°35'0 0.0
2015-Aug-31 14:33N 52°28' E 004°35'0 0.0
2015-Aug-31 13:33N 52°28' E 004°35'0 0.0
2015-Aug-31 12:33N 52°28' E 004°35'0 0.0
2015-Aug-31 11:33N 52°28' E 004°35'0 0.0
2015-Aug-31 10:27N 52°28' E 004°35'0 0.0
2015-Aug-31 09:33N 52°28' E 004°35'0 0.0
2015-Aug-31 08:33N 52°28' E 004°35'0 0.0
2015-Aug-31 07:30N 52°28' E 004°35'0 0.0
2015-Aug-31 06:33N 52°28' E 004°35'0 0.0
2015-Aug-31 05:33N 52°28' E 004°35'0 0.0
2015-Aug-31 04:33N 52°28' E 004°35'0 0.0
2015-Aug-31 03:33N 52°28' E 004°35'0 0.0
2015-Aug-31 02:33N 52°28' E 004°35'0 0.0
2015-Aug-31 01:33N 52°28' E 004°35'0 0.0
2015-Aug-31 00:33N 52°28' E 004°35'1 1.3
2015-Aug-30 23:33N 52°28' E 004°33'7 7.1
2015-Aug-30 22:33N 52°29' E 004°22'8 7.7
2015-Aug-30 21:33N 52°30' E 004°09'8 7.6
2015-Aug-30 20:33N 52°30' E 003°57'75 5.0
2015-Aug-30 05:20N 53°45' E 003°45'1010.7
2015-Aug-30 04:23N 53°51' E 003°59'911.1
2015-Aug-30 03:33N 53°57' E 004°11'14810.9
2015-Aug-29 14:00N 56°24' E 003°48'   230 / 221015.810.8 17.0 15.1
Track history (hours):
 
Tides and Currents Weather Stations Pressure Air Temp Water Temp Dewpoint Dewpoint Depression Visibility Wind Speed Wind Dir Waves Ship Positions

Bw Arctic

Last reported at 2015-Sep-05 03:31 UTC. Time now 2015-Sep-05 03:43 UTC.
Position N 53°38' W 000°12'.

Length 292 m; beam 48 m; draft 17.2 m.

Type: Cargo ship. MMSI: 371579000.

Date/timePositionNaut miles runAvg speedWind from/ knotsBaromVisibWave heightAir tempDewpointWater temp
2015-Sep-05 03:31N 53°38' W 000°12'0 0.0
2015-Sep-05 02:31N 53°38' W 000°12'0 0.0
2015-Sep-05 01:31N 53°38' W 000°12'0 0.0
2015-Sep-05 00:31N 53°38' W 000°12'0 0.0
2015-Sep-04 23:32N 53°38' W 000°12'0 0.0
2015-Sep-04 22:31N 53°38' W 000°12'0 0.0
2015-Sep-04 21:31N 53°38' W 000°12'0 0.0
2015-Sep-04 20:31N 53°38' W 000°12'0 0.0
2015-Sep-04 19:31N 53°38' W 000°12'0 0.0
2015-Sep-04 18:31N 53°38' W 000°12'0 0.0
2015-Sep-04 17:31N 53°38' W 000°12'0 0.0
2015-Sep-04 16:31N 53°38' W 000°12'0 0.0
2015-Sep-04 15:31N 53°38' W 000°12'0 0.0
2015-Sep-04 14:31N 53°38' W 000°12'0 0.0
2015-Sep-04 13:31N 53°38' W 000°12'0 0.0
2015-Sep-04 12:31N 53°38' W 000°12'0 0.0
2015-Sep-04 11:31N 53°38' W 000°12'0 0.0
2015-Sep-04 10:31N 53°38' W 000°12'0 0.0
2015-Sep-04 09:31N 53°38' W 000°12'0 0.0
2015-Sep-04 08:31N 53°38' W 000°12'0 0.0
2015-Sep-04 07:31N 53°38' W 000°12'0 0.0
2015-Sep-04 06:31N 53°38' W 000°12'0 0.0
2015-Sep-04 05:31N 53°38' W 000°12'0 0.0
2015-Sep-04 04:31N 53°38' W 000°12'0 0.0
2015-Sep-04 03:31N 53°38' W 000°12'0 0.0
2015-Sep-04 02:31N 53°38' W 000°12'0 0.0
2015-Sep-04 01:31N 53°38' W 000°12'0 0.0
2015-Sep-04 00:31N 53°38' W 000°12'0 0.0
2015-Sep-03 23:31N 53°38' W 000°12'0 0.0
2015-Sep-03 22:31N 53°38' W 000°12'0 0.0
2015-Sep-03 21:33N 53°38' W 000°12'3 3.3
2015-Sep-03 20:33N 53°37' W 000°06'10 9.7
2015-Sep-03 19:33N 53°33' E 000°09'1010.2
2015-Sep-03 18:33N 53°39' E 000°23'2 2.5
2015-Sep-03 17:33N 53°41' E 000°25'6 6.2
2015-Sep-03 16:33N 53°46' E 000°30'0 0.2
2015-Sep-03 15:28N 53°46' E 000°30'0 0.1
2015-Sep-03 14:31N 53°46' E 000°30'0 0.0
2015-Sep-03 13:31N 53°46' E 000°30'0 0.0
2015-Sep-03 12:31N 53°46' E 000°30'0 0.3
2015-Sep-03 11:19N 53°46' E 000°30'0 0.1
2015-Sep-03 10:31N 53°46' E 000°30'0 0.0
2015-Sep-03 09:22N 53°46' E 000°30'0 0.0
2015-Sep-03 08:25N 53°46' E 000°30'0 0.0
2015-Sep-03 07:22N 53°46' E 000°30'0 0.1
2015-Sep-03 06:25N 53°46' E 000°30'0 0.0
2015-Sep-03 05:25N 53°46' E 000°30'0 0.0
2015-Sep-03 04:13N 53°46' E 000°30'0 0.2
2015-Sep-03 03:28N 53°46' E 000°30'0 0.2
2015-Sep-03 02:25N 53°46' E 000°30'0 0.0
2015-Sep-03 01:31N 53°46' E 000°30'0 0.0
2015-Sep-02 23:31N 53°46' E 000°30'0 0.3
2015-Sep-02 22:31N 53°46' E 000°30'0 0.0
2015-Sep-02 21:31N 53°46' E 000°30'0 0.0
2015-Sep-02 20:31N 53°46' E 000°30'0 0.0
2015-Sep-02 19:22N 53°46' E 000°30'0 0.1
2015-Sep-02 18:31N 53°46' E 000°30'0 0.0
2015-Sep-02 17:28N 53°46' E 000°30'0 0.0
2015-Sep-02 16:25N 53°46' E 000°30'0 0.2
2015-Sep-02 15:13N 53°46' E 000°30'0 0.3
2015-Sep-02 14:28N 53°46' E 000°30'0 0.0
2015-Sep-02 13:28N 53°46' E 000°30'0 0.0
2015-Sep-02 12:31N 53°46' E 000°30'0 0.1
2015-Sep-02 11:31N 53°46' E 000°30'0 0.3
2015-Sep-02 10:28N 53°46' E 000°30'0 0.1
2015-Sep-02 09:31N 53°46' E 000°30'0 0.0
2015-Sep-02 08:31N 53°46' E 000°30'0 0.0
2015-Sep-02 07:16N 53°46' E 000°30'1 0.9
2015-Sep-02 06:33N 53°47' E 000°31'6 6.5
2015-Sep-02 05:33N 53°51' E 000°39'148 9.3
2015-Sep-01 13:33N 52°31' E 004°07'1010.1
2015-Sep-01 12:33N 52°29' E 004°23'7 3.6
2015-Sep-01 10:33N 52°28' E 004°35'0 0.0
2015-Sep-01 09:18N 52°28' E 004°35'0 0.0
2015-Sep-01 08:33N 52°28' E 004°35'0 0.0
2015-Sep-01 07:33N 52°28' E 004°35'0 0.0
2015-Sep-01 06:33N 52°28' E 004°35'0 0.0
2015-Sep-01 05:24N 52°28' E 004°35'0 0.0
2015-Sep-01 04:33N 52°28' E 004°35'0 0.0
2015-Sep-01 03:33N 52°28' E 004°35'0 0.0
2015-Sep-01 02:33N 52°28' E 004°35'0 0.0
2015-Sep-01 01:33N 52°28' E 004°35'0 0.0
2015-Sep-01 00:33N 52°28' E 004°35'0 0.0
2015-Aug-31 23:33N 52°28' E 004°35'0 0.0
2015-Aug-31 22:33N 52°28' E 004°35'0 0.0
2015-Aug-31 21:33N 52°28' E 004°35'0 0.0
2015-Aug-31 20:33N 52°28' E 004°35'0 0.0
2015-Aug-31 19:33N 52°28' E 004°35'0 0.0
2015-Aug-31 18:33N 52°28' E 004°35'0 0.0
2015-Aug-31 17:33N 52°28' E 004°35'0 0.0
2015-Aug-31 16:33N 52°28' E 004°35'0 0.0
2015-Aug-31 15:30N 52°28' E 004°35'0 0.0
2015-Aug-31 14:33N 52°28' E 004°35'0 0.0
2015-Aug-31 13:33N 52°28' E 004°35'0 0.0
2015-Aug-31 12:33N 52°28' E 004°35'0 0.0
2015-Aug-31 11:33N 52°28' E 004°35'0 0.0
2015-Aug-31 10:27N 52°28' E 004°35'0 0.0
2015-Aug-31 09:33N 52°28' E 004°35'0 0.0
2015-Aug-31 08:33N 52°28' E 004°35'0 0.0
2015-Aug-31 07:30N 52°28' E 004°35'0 0.0
2015-Aug-31 06:33N 52°28' E 004°35'0 0.0
2015-Aug-31 05:33N 52°28' E 004°35'0 0.0
2015-Aug-31 04:33N 52°28' E 004°35'0 0.0
2015-Aug-31 03:33N 52°28' E 004°35'0 0.0
2015-Aug-31 02:33N 52°28' E 004°35'0 0.0
2015-Aug-31 01:33N 52°28' E 004°35'0 0.0
2015-Aug-31 00:33N 52°28' E 004°35'1 1.3
2015-Aug-30 23:33N 52°28' E 004°33'7 7.1
2015-Aug-30 22:33N 52°29' E 004°22'8 7.7
2015-Aug-30 21:33N 52°30' E 004°09'8 7.6
2015-Aug-30 20:33N 52°30' E 003°57'75 5.0
2015-Aug-30 05:20N 53°45' E 003°45'1010.7
2015-Aug-30 04:23N 53°51' E 003°59'911.1
2015-Aug-30 03:33N 53°57' E 004°11'14810.9
2015-Aug-29 14:00N 56°24' E 003°48'   230 / 221015.810.8 17.0 15.1

Dump ship's entire track history